Time;durP1;ratioP1;P1;durP2;ratioP2;P2;SDS_P1;SDS_P2;PMS_P1;PMS_P2;Temp;Humidity;BMP_temperature;BMP_pressure;BME280_temperature;BME280_humidity;BME280_pressure;Samples;Min_cycle;Max_cycle;Signal;HPM_P1;HPM_P2
2023/02/23 00:00:31;;;;;;;42.45;21.40;;;;;;;;;;5028918;28;20031;-83
2023/02/23 00:03:00;;;;;;;41.25;21.40;;;;;;;;;;5045612;28;20029;-83
2023/02/23 00:05:27;;;;;;;42.25;20.55;;;;;;;;;;5025081;28;20492;-84
2023/02/23 00:07:53;;;;;;;42.38;20.05;;;;;;;;;;5028029;28;20024;-84
2023/02/23 00:10:20;;;;;;;37.78;19.60;;;;;;;;;;5019247;28;20029;-84
2023/02/23 00:12:48;;;;;;;43.63;20.10;;;;;;;;;;5026377;28;20031;-83
2023/02/23 00:15:14;;;;;;;40.58;21.02;;;;;;;;;;5028073;28;20086;-84
2023/02/23 00:17:40;;;;;;;41.17;20.52;;;;;;;;;;5048356;28;20029;-84
2023/02/23 00:20:11;;;;;;;43.33;21.67;;;;;;;;;;5029845;28;20089;-84
2023/02/23 00:22:38;;;;;;;40.28;20.77;;;;;;;;;;5043922;28;20155;-81
2023/02/23 00:25:09;;;;;;;42.42;20.10;;;;;;;;;;5025206;28;20016;-83
2023/02/23 00:27:36;;;;;;;40.75;19.10;;;;;;;;;;5026299;28;20385;-83
2023/02/23 00:30:03;;;;;;;37.88;19.77;;;;;;;;;;5049203;28;20020;-84
2023/02/23 00:32:28;;;;;;;42.28;20.85;;;;;;;;;;5013605;28;20500;-83
2023/02/23 00:34:54;;;;;;;42.78;21.65;;;;;;;;;;5027747;28;20079;-83
2023/02/23 00:37:21;;;;;;;39.13;20.10;;;;;;;;;;5027846;28;20044;-83
2023/02/23 00:39:47;;;;;;;39.55;20.67;;;;;;;;;;5042895;28;20034;-83
2023/02/23 00:42:12;;;;;;;39.78;19.98;;;;;;;;;;5030550;28;20492;-84
2023/02/23 00:44:39;;;;;;;37.45;19.85;;;;;;;;;;5032249;28;20178;-83
2023/02/23 00:47:05;;;;;;;39.40;19.10;;;;;;;;;;5029492;28;20044;-83
2023/02/23 00:49:31;;;;;;;41.45;20.48;;;;;;;;;;5032838;28;20056;-84
2023/02/23 00:51:57;;;;;;;40.03;20.02;;;;;;;;;;5032256;28;20025;-83
2023/02/23 00:54:22;;;;;;;39.83;20.27;;;;;;;;;;5034252;28;20071;-80
2023/02/23 00:56:48;;;;;;;38.55;19.42;;;;;;;;;;5031272;28;20044;-83
2023/02/23 00:59:14;;;;;;;39.15;20.45;;;;;;;;;;5028812;28;20025;-81
2023/02/23 01:01:40;;;;;;;39.55;19.88;;;;;;;;;;5039398;28;20021;-83
2023/02/23 01:04:07;;;;;;;42.17;20.95;;;;;;;;;;5040632;28;20039;-80
2023/02/23 01:06:33;;;;;;;38.42;18.85;;;;;;;;;;5042408;28;20103;-83
2023/02/23 01:08:58;;;;;;;43.80;20.55;;;;;;;;;;5042730;28;20078;-83
2023/02/23 01:11:29;;;;;;;42.80;21.02;;;;;;;;;;5043541;28;20020;-84
2023/02/23 01:13:56;;;;;;;41.30;20.15;;;;;;;;;;5024071;28;20472;-83
2023/02/23 01:16:27;;;;;;;38.08;19.45;;;;;;;;;;5035437;28;20419;-84
2023/02/23 01:18:54;;;;;;;40.45;19.65;;;;;;;;;;5042906;28;20036;-83
2023/02/23 01:21:28;;;;;;;42.50;20.35;;;;;;;;;;5015027;28;20122;-79
2023/02/23 01:23:54;;;;;;;42.08;20.52;;;;;;;;;;5025012;28;20029;-83
2023/02/23 01:26:21;;;;;;;44.88;21.00;;;;;;;;;;5040435;28;20051;-83
2023/02/23 01:28:55;;;;;;;39.50;19.13;;;;;;;;;;5019377;28;20029;-83
2023/02/23 01:31:22;;;;;;;36.78;18.05;;;;;;;;;;5043620;28;20104;-83
2023/02/23 01:33:52;;;;;;;38.50;19.27;;;;;;;;;;5029560;28;20375;-83
2023/02/23 01:36:18;;;;;;;43.47;20.95;;;;;;;;;;5047045;28;20541;-82
2023/02/23 01:38:43;;;;;;;41.33;20.17;;;;;;;;;;5046895;28;20123;-83
2023/02/23 01:41:09;;;;;;;45.83;21.95;;;;;;;;;;5039229;28;20040;-84
2023/02/23 01:43:35;;;;;;;38.97;20.08;;;;;;;;;;5030587;28;20025;-83
2023/02/23 01:46:02;;;;;;;41.75;20.05;;;;;;;;;;5030782;28;20503;-83
2023/02/23 01:48:35;;;;;;;42.45;20.80;;;;;;;;;;5022722;28;20124;-84
2023/02/23 01:51:02;;;;;;;38.50;18.27;;;;;;;;;;5041110;28;20025;-84
2023/02/23 01:53:32;;;;;;;40.97;19.48;;;;;;;;;;5033888;28;20036;-84
2023/02/23 01:56:04;;;;;;;41.78;18.92;;;;;;;;;;5033103;28;20126;-84
2023/02/23 01:58:32;;;;;;;36.75;18.88;;;;;;;;;;5042783;28;20064;-83
2023/02/23 02:01:01;;;;;;;43.55;20.05;;;;;;;;;;5035182;28;20023;-83
2023/02/23 02:03:31;;;;;;;39.53;20.58;;;;;;;;;;5035136;28;20078;-80
2023/02/23 02:06:00;;;;;;;40.67;20.20;;;;;;;;;;5015297;28;20037;-80
2023/02/23 02:08:27;;;;;;;35.00;17.50;;;;;;;;;;5019719;28;20153;-83
2023/02/23 02:10:56;;;;;;;38.90;20.17;;;;;;;;;;5024458;28;20021;-81
2023/02/23 02:13:28;;;;;;;37.60;18.77;;;;;;;;;;5037843;28;20048;-83
2023/02/23 02:16:20;;;;;;;40.92;20.00;;;;;;;;;;5038102;28;20389;-83
2023/02/23 02:19:09;;;;;;;33.00;17.00;;;;;;;;;;5016189;28;20041;-82
2023/02/23 02:21:59;;;;;;;36.35;18.00;;;;;;;;;;5020315;28;20027;-84
2023/02/23 02:24:27;;;;;;;40.38;18.50;;;;;;;;;;5038600;28;20033;-83
2023/02/23 02:27:28;;;;;;;40.47;19.75;;;;;;;;;;5020602;28;20391;-82
2023/02/23 02:30:25;;;;;;;42.97;19.10;;;;;;;;;;5016569;28;20143;-83
2023/02/23 02:33:12;;;;;;;39.45;18.45;;;;;;;;;;5046899;28;20115;-83
2023/02/23 02:36:00;;;;;;;41.92;19.48;;;;;;;;;;5031776;28;20043;-83
2023/02/23 02:38:57;;;;;;;40.90;18.92;;;;;;;;;;5044561;28;20445;-84
2023/02/23 02:41:50;;;;;;;37.58;18.10;;;;;;;;;;5020974;28;20548;-80
2023/02/23 02:44:35;;;;;;;44.42;19.95;;;;;;;;;;5026936;28;20021;-83
2023/02/23 02:47:08;;;;;;;38.05;18.63;;;;;;;;;;5043444;28;20031;-83
2023/02/23 02:49:50;;;;;;;38.85;18.02;;;;;;;;;;5049163;28;20072;-83
2023/02/23 02:52:34;;;;;;;37.07;18.27;;;;;;;;;;5038422;28;20029;-80
2023/02/23 02:55:14;;;;;;;35.50;18.15;;;;;;;;;;5037805;28;20270;-82
2023/02/23 02:57:41;;;;;;;38.20;18.80;;;;;;;;;;5007709;28;20081;-83
2023/02/23 04:18:30;;;;;;;36.30;17.67;;;;;;;;;;5033587;28;20033;-80
2023/02/23 04:20:56;;;;;;;39.97;18.63;;;;;;;;;;5019081;28;20029;-83
2023/02/23 04:23:23;;;;;;;37.67;17.95;;;;;;;;;;5035005;28;20021;-81
2023/02/23 04:25:49;;;;;;;36.83;17.95;;;;;;;;;;5018738;28;20123;-83
2023/02/23 04:28:15;;;;;;;38.25;18.33;;;;;;;;;;5037444;28;20032;-79
2023/02/23 04:30:41;;;;;;;41.70;18.55;;;;;;;;;;5017462;28;20033;-82
2023/02/23 04:33:06;;;;;;;34.40;17.25;;;;;;;;;;5043321;28;20025;-81
2023/02/23 04:35:32;;;;;;;38.03;17.95;;;;;;;;;;5017099;28;20384;-82
2023/02/23 04:37:57;;;;;;;35.38;18.73;;;;;;;;;;5038133;28;20437;-83
2023/02/23 04:40:23;;;;;;;39.13;19.63;;;;;;;;;;5049108;28;20104;-82
2023/02/23 04:42:49;;;;;;;42.45;19.13;;;;;;;;;;5045732;28;20025;-83
2023/02/23 04:45:14;;;;;;;38.08;18.25;;;;;;;;;;5028058;28;20044;-82
2023/02/23 04:47:40;;;;;;;37.10;18.83;;;;;;;;;;5029081;28;20125;-83
2023/02/23 04:50:06;;;;;;;40.03;19.27;;;;;;;;;;5046645;28;20492;-83
2023/02/23 04:52:33;;;;;;;35.63;17.40;;;;;;;;;;5026442;28;20495;-82
2023/02/23 04:54:59;;;;;;;37.13;17.98;;;;;;;;;;5026744;28;20036;-82
2023/02/23 04:57:25;;;;;;;39.72;19.35;;;;;;;;;;5007205;28;20033;-82
2023/02/23 04:59:51;;;;;;;36.83;18.15;;;;;;;;;;5042421;28;20033;-82
2023/02/23 05:02:16;;;;;;;41.22;19.50;;;;;;;;;;5038298;28;20098;-83
2023/02/23 05:04:41;;;;;;;38.67;19.20;;;;;;;;;;5020677;28;20065;-82
2023/02/23 05:07:07;;;;;;;42.30;18.80;;;;;;;;;;5038915;28;20020;-83
2023/02/23 05:09:33;;;;;;;39.28;17.63;;;;;;;;;;5041225;28;20100;-81
2023/02/23 05:11:59;;;;;;;39.00;18.10;;;;;;;;;;5025907;28;21035;-82
2023/02/23 05:14:24;;;;;;;39.20;18.40;;;;;;;;;;5022537;28;20027;-83
2023/02/23 05:16:50;;;;;;;34.70;17.70;;;;;;;;;;5022036;28;20052;-82
2023/02/23 05:19:15;;;;;;;39.97;19.40;;;;;;;;;;5020881;28;20025;-80
2023/02/23 05:21:41;;;;;;;37.25;18.25;;;;;;;;;;5043915;28;20036;-83
2023/02/23 05:24:07;;;;;;;36.15;17.65;;;;;;;;;;5025985;28;20033;-83
2023/02/23 05:26:33;;;;;;;34.90;17.10;;;;;;;;;;5044509;28;20020;-83
2023/02/23 05:28:58;;;;;;;39.95;18.38;;;;;;;;;;5028248;28;20369;-83
2023/02/23 05:31:25;;;;;;;33.13;17.10;;;;;;;;;;5024406;28;20032;-81
2023/02/23 05:33:51;;;;;;;33.70;16.92;;;;;;;;;;5034359;28;20025;-83
2023/02/23 05:36:17;;;;;;;36.60;17.88;;;;;;;;;;5029932;28;20024;-83
2023/02/23 05:38:44;;;;;;;32.30;15.95;;;;;;;;;;5023416;28;20033;-79
2023/02/23 05:41:21;;;;;;;34.40;17.08;;;;;;;;;;5018106;28;20029;-81
2023/02/23 05:43:49;;;;;;;37.90;18.13;;;;;;;;;;5034482;28;20059;-82
2023/02/23 05:46:18;;;;;;;31.17;16.20;;;;;;;;;;5038452;28;20094;-83
2023/02/23 05:48:43;;;;;;;36.92;17.65;;;;;;;;;;5021099;28;20036;-83
2023/02/23 05:51:12;;;;;;;33.67;16.77;;;;;;;;;;5022154;28;20025;-83
2023/02/23 05:53:38;;;;;;;29.90;15.50;;;;;;;;;;5043160;28;20036;-82
2023/02/23 05:56:06;;;;;;;35.45;17.75;;;;;;;;;;5024406;28;20029;-82
2023/02/23 05:58:32;;;;;;;35.33;16.73;;;;;;;;;;5045039;28;20021;-83
2023/02/23 06:00:58;;;;;;;32.00;16.95;;;;;;;;;;5047196;28;20021;-83
2023/02/23 06:03:24;;;;;;;35.83;16.67;;;;;;;;;;5026338;28;20388;-83
2023/02/23 06:05:54;;;;;;;30.60;15.60;;;;;;;;;;4999890;28;1109569;-83
2023/02/23 06:08:20;;;;;;;33.90;16.17;;;;;;;;;;5012837;28;20446;-82
2023/02/23 06:10:46;;;;;;;31.58;15.98;;;;;;;;;;5040614;28;20033;-79
2023/02/23 06:13:12;;;;;;;32.38;16.08;;;;;;;;;;5042189;28;20031;-84
2023/02/23 06:15:38;;;;;;;31.05;15.68;;;;;;;;;;5042854;28;20029;-80
2023/02/23 06:18:04;;;;;;;32.92;16.48;;;;;;;;;;5023621;28;20054;-83
2023/02/23 06:20:30;;;;;;;33.95;16.98;;;;;;;;;;5022844;28;20087;-83
2023/02/23 06:22:56;;;;;;;34.90;16.73;;;;;;;;;;5037204;28;20032;-83
2023/02/23 06:25:22;;;;;;;32.13;16.13;;;;;;;;;;5045323;28;20114;-81
2023/02/23 06:27:47;;;;;;;32.50;16.70;;;;;;;;;;5027445;28;20028;-82
2023/02/23 06:30:13;;;;;;;34.47;16.58;;;;;;;;;;5028673;28;20491;-82
2023/02/23 06:32:38;;;;;;;33.40;15.85;;;;;;;;;;5025583;28;20024;-82
2023/02/23 06:35:05;;;;;;;32.40;15.32;;;;;;;;;;5030094;28;20021;-81
2023/02/23 06:37:31;;;;;;;33.00;16.23;;;;;;;;;;5039550;28;20428;-81
2023/02/23 06:39:57;;;;;;;29.83;16.35;;;;;;;;;;5044941;28;20071;-83
2023/02/23 06:42:23;;;;;;;31.48;16.15;;;;;;;;;;5045412;28;20044;-83
2023/02/23 06:44:48;;;;;;;31.83;16.70;;;;;;;;;;5026129;28;20037;-82
2023/02/23 06:47:13;;;;;;;33.10;16.88;;;;;;;;;;5048234;28;20093;-81
2023/02/23 06:49:39;;;;;;;32.20;16.10;;;;;;;;;;5045729;28;20036;-83
2023/02/23 06:52:06;;;;;;;29.35;14.30;;;;;;;;;;5021642;28;20449;-82
2023/02/23 06:54:33;;;;;;;28.67;15.55;;;;;;;;;;5016129;28;20037;-84
2023/02/23 06:56:59;;;;;;;28.10;14.70;;;;;;;;;;5038293;28;20021;-83
2023/02/23 06:59:25;;;;;;;31.70;15.43;;;;;;;;;;5040538;28;20035;-80
2023/02/23 07:01:50;;;;;;;31.60;16.20;;;;;;;;;;5018922;28;20025;-83
2023/02/23 07:04:16;;;;;;;28.63;15.70;;;;;;;;;;5033931;28;20396;-81
2023/02/23 07:06:41;;;;;;;28.55;15.25;;;;;;;;;;5036494;28;20469;-83
2023/02/23 07:09:07;;;;;;;30.80;15.60;;;;;;;;;;5022928;28;20040;-81
2023/02/23 07:11:32;;;;;;;30.98;16.10;;;;;;;;;;5024937;28;20374;-83
2023/02/23 07:14:00;;;;;;;33.13;15.27;;;;;;;;;;5042048;28;20025;-83
2023/02/23 07:16:26;;;;;;;30.75;15.23;;;;;;;;;;5038813;28;20020;-83
2023/02/23 07:18:52;;;;;;;32.63;15.85;;;;;;;;;;5024814;28;20032;-84
2023/02/23 07:21:17;;;;;;;31.10;15.02;;;;;;;;;;5036589;28;20071;-84
2023/02/23 07:23:43;;;;;;;31.27;16.13;;;;;;;;;;5039418;28;20041;-83
2023/02/23 07:26:08;;;;;;;31.42;15.77;;;;;;;;;;5027149;28;20041;-83
2023/02/23 07:28:34;;;;;;;31.20;15.70;;;;;;;;;;5020723;28;20056;-83
2023/02/23 07:30:59;;;;;;;30.08;14.85;;;;;;;;;;5039368;28;20079;-81
2023/02/23 07:33:25;;;;;;;30.05;15.57;;;;;;;;;;5019307;28;20037;-83
2023/02/23 07:35:50;;;;;;;32.00;16.17;;;;;;;;;;5043224;28;20495;-82
2023/02/23 07:38:16;;;;;;;31.48;15.35;;;;;;;;;;5049129;28;20428;-83
2023/02/23 07:40:42;;;;;;;33.38;15.52;;;;;;;;;;5044467;28;20500;-83
2023/02/23 07:43:07;;;;;;;33.22;16.67;;;;;;;;;;5035672;28;20086;-83
2023/02/23 07:45:33;;;;;;;32.42;15.57;;;;;;;;;;5025953;28;20017;-83
2023/02/23 07:47:58;;;;;;;34.92;15.40;;;;;;;;;;5050300;28;20033;-83
2023/02/23 07:50:25;;;;;;;29.58;15.35;;;;;;;;;;5025408;28;20021;-83
2023/02/23 07:52:51;;;;;;;30.75;15.70;;;;;;;;;;5024270;28;20464;-83
2023/02/23 07:55:16;;;;;;;33.67;16.27;;;;;;;;;;5030722;28;20028;-83
2023/02/23 07:57:42;;;;;;;33.95;16.73;;;;;;;;;;5037455;28;20377;-82
2023/02/23 08:00:08;;;;;;;30.60;15.38;;;;;;;;;;5031480;28;20029;-83
2023/02/23 08:02:34;;;;;;;32.95;15.48;;;;;;;;;;5047742;28;20032;-82
2023/02/23 08:04:59;;;;;;;31.45;16.15;;;;;;;;;;5036061;28;20032;-82
2023/02/23 08:07:25;;;;;;;35.70;17.25;;;;;;;;;;5052617;28;20465;-83
2023/02/23 08:09:51;;;;;;;31.13;15.73;;;;;;;;;;5035032;28;20129;-83
2023/02/23 08:12:16;;;;;;;32.03;16.13;;;;;;;;;;5040145;28;20158;-83
2023/02/23 08:14:42;;;;;;;33.67;17.05;;;;;;;;;;5022031;28;20502;-83
2023/02/23 08:17:08;;;;;;;32.50;16.55;;;;;;;;;;5048546;28;20427;-82
2023/02/23 08:19:34;;;;;;;32.60;16.70;;;;;;;;;;5041430;28;20021;-81
2023/02/23 08:22:00;;;;;;;33.20;16.48;;;;;;;;;;5027705;28;20464;-83
2023/02/23 08:24:25;;;;;;;31.10;17.30;;;;;;;;;;5029241;28;20035;-83
2023/02/23 08:26:51;;;;;;;32.42;15.77;;;;;;;;;;5026213;28;20179;-83
2023/02/23 08:29:17;;;;;;;33.08;17.02;;;;;;;;;;5023659;28;20028;-83
2023/02/23 08:31:43;;;;;;;34.38;17.63;;;;;;;;;;5031786;28;20029;-85
2023/02/23 08:34:09;;;;;;;36.55;17.42;;;;;;;;;;5026593;28;20021;-82
2023/02/23 08:36:34;;;;;;;33.83;16.85;;;;;;;;;;5044674;28;20021;-79
2023/02/23 08:39:00;;;;;;;34.92;17.05;;;;;;;;;;5030568;28;20029;-83
2023/02/23 08:41:26;;;;;;;36.75;18.80;;;;;;;;;;5043593;28;20025;-82
2023/02/23 08:43:52;;;;;;;34.55;17.50;;;;;;;;;;5025692;28;20116;-83
2023/02/23 08:46:19;;;;;;;34.45;16.58;;;;;;;;;;5048822;28;20025;-82
2023/02/23 08:48:45;;;;;;;33.67;17.85;;;;;;;;;;5045553;28;20056;-82
2023/02/23 08:51:11;;;;;;;34.45;17.50;;;;;;;;;;5038897;28;20021;-82
2023/02/23 08:53:37;;;;;;;36.38;17.27;;;;;;;;;;5043177;28;20074;-82
2023/02/23 08:56:05;;;;;;;36.03;17.45;;;;;;;;;;5040698;28;20486;-82
2023/02/23 08:58:32;;;;;;;38.83;18.20;;;;;;;;;;5045910;28;20028;-83
2023/02/23 09:00:58;;;;;;;37.70;17.42;;;;;;;;;;5042824;28;20063;-83
2023/02/23 09:03:25;;;;;;;38.17;17.05;;;;;;;;;;5046972;28;20128;-82
2023/02/23 09:05:51;;;;;;;39.03;17.25;;;;;;;;;;5027573;28;20036;-83
2023/02/23 09:08:17;;;;;;;36.10;17.10;;;;;;;;;;5046327;28;20029;-78
2023/02/23 09:10:43;;;;;;;35.00;16.95;;;;;;;;;;5045217;28;20491;-82
2023/02/23 09:13:10;;;;;;;34.30;15.70;;;;;;;;;;5031578;28;20029;-83
2023/02/23 09:15:37;;;;;;;34.95;16.88;;;;;;;;;;5025011;28;20029;-83
2023/02/23 09:18:03;;;;;;;36.13;16.35;;;;;;;;;;5046034;28;20029;-83
2023/02/23 09:20:29;;;;;;;32.97;16.17;;;;;;;;;;5041417;28;20592;-83
2023/02/23 09:22:54;;;;;;;33.47;15.45;;;;;;;;;;5047149;28;20029;-83
2023/02/23 09:25:24;;;;;;;34.42;16.83;;;;;;;;;;5033180;28;20032;-82
2023/02/23 09:27:51;;;;;;;36.38;16.95;;;;;;;;;;5050617;28;20025;-83
2023/02/23 09:30:19;;;;;;;34.63;16.88;;;;;;;;;;5032393;28;20044;-83
2023/02/23 09:32:52;;;;;;;36.58;17.35;;;;;;;;;;5033710;28;20533;-83
2023/02/23 09:35:19;;;;;;;34.28;17.02;;;;;;;;;;5014741;28;20024;-83
2023/02/23 09:37:47;;;;;;;35.75;15.30;;;;;;;;;;5048021;28;20037;-82
2023/02/23 09:40:19;;;;;;;39.53;17.45;;;;;;;;;;5027635;28;20029;-83
2023/02/23 09:43:00;;;;;;;33.03;15.80;;;;;;;;;;5032242;28;20119;-83
2023/02/23 09:45:57;;;;;;;36.35;17.25;;;;;;;;;;5028483;28;20058;-79
2023/02/23 09:48:27;;;;;;;34.78;15.55;;;;;;;;;;5044964;28;20063;-79
2023/02/23 09:50:56;;;;;;;36.30;15.45;;;;;;;;;;5048834;28;20396;-83
2023/02/23 09:53:39;;;;;;;34.58;15.20;;;;;;;;;;5042889;28;20026;-82
2023/02/23 09:56:17;;;;;;;34.80;15.68;;;;;;;;;;5047063;28;20025;-82
2023/02/23 09:58:43;;;;;;;35.85;17.30;;;;;;;;;;5030496;28;20033;-84
2023/02/23 10:01:27;;;;;;;35.83;16.52;;;;;;;;;;5046263;28;20033;-80
2023/02/23 10:04:07;;;;;;;39.80;16.70;;;;;;;;;;5043342;28;20053;-84
2023/02/23 10:06:33;;;;;;;39.30;16.77;;;;;;;;;;5047820;28;20044;-82
2023/02/23 10:09:13;;;;;;;42.25;19.02;;;;;;;;;;5030817;28;20327;-83
2023/02/23 10:12:05;;;;;;;43.05;16.83;;;;;;;;;;5046744;28;20053;-83
2023/02/23 10:14:44;;;;;;;39.75;17.00;;;;;;;;;;5045183;28;20024;-83
2023/02/23 10:17:34;;;;;;;38.28;16.75;;;;;;;;;;5050543;28;20415;-83
2023/02/23 10:20:39;;;;;;;41.78;16.98;;;;;;;;;;5023137;28;20025;-83
2023/02/23 10:23:12;;;;;;;39.85;16.27;;;;;;;;;;5032698;28;20098;-81
2023/02/23 10:25:40;;;;;;;;;;;;;;;;;;5030108;28;20032;-83
2023/02/23 10:28:13;;;;;;;38.97;16.08;;;;;;;;;;5044451;28;19920;-83
2023/02/23 10:30:39;;;;;;;40.60;16.90;;;;;;;;;;5037336;28;20380;-83
2023/02/23 10:33:17;;;;;;;43.53;16.90;;;;;;;;;;5032355;28;20028;-83
2023/02/23 10:35:44;;;;;;;40.42;16.67;;;;;;;;;;5032251;28;20044;-83
2023/02/23 10:38:17;;;;;;;40.28;16.95;;;;;;;;;;5050681;28;20021;-82
2023/02/23 10:40:52;;;;;;;43.35;18.05;;;;;;;;;;5045535;28;20044;-83
2023/02/23 10:43:18;;;;;;;37.35;16.15;;;;;;;;;;5027820;28;20565;-83
2023/02/23 10:45:46;;;;;;;43.78;16.13;;;;;;;;;;5026624;28;20037;-83
2023/02/23 10:48:32;;;;;;;36.67;15.73;;;;;;;;;;5032971;28;20434;-83
2023/02/23 10:51:01;;;;;;;35.78;16.13;;;;;;;;;;5047274;28;20032;-81
2023/02/23 10:53:34;;;;;;;38.75;16.15;;;;;;;;;;5047083;28;20037;-79
2023/02/23 10:56:09;;;;;;;34.95;15.32;;;;;;;;;;5045369;28;20476;-83
2023/02/23 10:58:42;;;;;;;37.25;14.95;;;;;;;;;;5028536;28;20435;-82
2023/02/23 11:01:08;;;;;;;35.63;15.75;;;;;;;;;;5046563;28;20033;-84
2023/02/23 11:03:49;;;;;;;33.58;14.20;;;;;;;;;;5047190;28;20044;-81
2023/02/23 11:06:34;;;;;;;32.17;13.88;;;;;;;;;;5028862;28;20447;-84
2023/02/23 11:09:26;;;;;;;33.78;15.00;;;;;;;;;;5045931;28;20040;-83
2023/02/23 11:11:59;;;;;;;35.05;14.68;;;;;;;;;;5035983;28;20070;-83
2023/02/23 11:14:29;;;;;;;36.83;14.93;;;;;;;;;;5028527;28;20082;-84
2023/02/23 11:16:57;;;;;;;35.22;14.75;;;;;;;;;;5039624;28;20476;-83
2023/02/23 11:19:43;;;;;;;34.17;14.80;;;;;;;;;;5029059;28;20111;-84
2023/02/23 11:22:22;;;;;;;35.53;14.95;;;;;;;;;;5049999;28;20127;-84
2023/02/23 11:24:48;;;;;;;35.33;13.77;;;;;;;;;;5043140;28;20082;-84
2023/02/23 11:27:23;;;;;;;33.42;14.32;;;;;;;;;;5052050;28;20075;-84
2023/02/23 11:29:52;;;;;;;33.33;13.52;;;;;;;;;;5052584;28;20120;-84
2023/02/23 11:32:30;;;;;;;29.73;12.90;;;;;;;;;;5049778;28;20031;-83
2023/02/23 11:35:20;;;;;;;28.55;13.13;;;;;;;;;;5047275;28;20063;-84
2023/02/23 11:37:46;;;;;;;30.17;12.77;;;;;;;;;;5041078;28;20116;-83
2023/02/23 11:40:28;;;;;;;29.38;12.90;;;;;;;;;;5039637;28;20203;-83
2023/02/23 11:42:55;;;;;;;30.77;11.93;;;;;;;;;;5023724;28;20477;-83
2023/02/23 11:45:26;;;;;;;29.65;12.98;;;;;;;;;;5034279;28;20568;-83
2023/02/23 11:47:55;;;;;;;32.95;13.45;;;;;;;;;;5037067;28;20099;-83
2023/02/23 11:50:32;;;;;;;27.13;12.35;;;;;;;;;;5024453;28;20021;-81
2023/02/23 11:53:15;;;;;;;23.88;11.48;;;;;;;;;;5045181;28;20044;-83
2023/02/23 11:55:49;;;;;;;26.25;11.18;;;;;;;;;;5026339;28;21382;-83
2023/02/23 11:58:38;;;;;;;22.92;10.27;;;;;;;;;;5035262;28;20032;-83
2023/02/23 12:01:44;;;;;;;27.45;11.73;;;;;;;;;;5047084;28;20023;-83
2023/02/23 12:04:29;;;;;;;23.73;10.85;;;;;;;;;;5016315;28;20028;-80
2023/02/23 12:07:40;;;;;;;27.50;11.60;;;;;;;;;;5026084;28;20052;-82
2023/02/23 12:10:23;;;;;;;26.42;11.85;;;;;;;;;;5039321;28;20384;-84
2023/02/23 12:13:06;;;;;;;23.98;11.32;;;;;;;;;;5038666;28;20766;-84
2023/02/23 12:15:59;;;;;;;26.02;12.32;;;;;;;;;;5025045;28;20025;-81
2023/02/23 12:18:30;;;;;;;27.42;12.18;;;;;;;;;;5028562;28;20059;-85
2023/02/23 12:21:09;;;;;;;25.75;12.63;;;;;;;;;;5031840;28;20147;-84
2023/02/23 12:23:36;;;;;;;26.75;13.10;;;;;;;;;;5040924;28;20021;-85
2023/02/23 12:26:16;;;;;;;27.02;13.30;;;;;;;;;;5040133;28;20118;-83
2023/02/23 12:29:09;;;;;;;26.58;13.63;;;;;;;;;;5051549;28;20039;-84
2023/02/23 12:31:46;;;;;;;20.83;10.90;;;;;;;;;;5028537;28;20029;-85
2023/02/23 12:34:31;;;;;;;20.80;10.88;;;;;;;;;;5040333;28;20037;-83
2023/02/23 12:37:10;;;;;;;21.00;10.90;;;;;;;;;;5024853;28;20124;-80
2023/02/23 12:39:40;;;;;;;18.90;9.82;;;;;;;;;;5026217;28;20477;-84
2023/02/23 12:42:12;;;;;;;21.13;10.70;;;;;;;;;;5047322;28;20021;-84
2023/02/23 12:44:47;;;;;;;17.15;8.75;;;;;;;;;;5045158;28;20036;-84
2023/02/23 12:47:23;;;;;;;15.85;8.43;;;;;;;;;;5045548;28;20037;-83
2023/02/23 12:50:06;;;;;;;16.45;8.23;;;;;;;;;;5023400;28;20032;-84
2023/02/23 12:52:37;;;;;;;17.60;9.30;;;;;;;;;;5018318;28;20028;-82
2023/02/23 12:55:08;;;;;;;17.73;9.15;;;;;;;;;;5037181;28;20047;-82
2023/02/23 12:57:47;;;;;;;17.98;9.38;;;;;;;;;;5041540;28;20119;-84
2023/02/23 13:00:38;;;;;;;19.70;9.73;;;;;;;;;;5026945;28;20029;-84
2023/02/23 13:03:12;;;;;;;14.02;8.05;;;;;;;;;;5046864;28;20035;-84
2023/02/23 13:06:02;;;;;;;13.93;7.75;;;;;;;;;;5044331;28;20036;-83
2023/02/23 13:09:02;;;;;;;16.10;7.72;;;;;;;;;;5025300;28;20536;-84
2023/02/23 13:11:33;;;;;;;13.30;6.97;;;;;;;;;;5029531;28;20392;-84
2023/02/23 13:14:35;;;;;;;12.20;6.70;;;;;;;;;;5033728;28;20025;-83
2023/02/23 13:17:15;;;;;;;13.35;6.50;;;;;;;;;;5028532;28;20734;-81
2023/02/23 13:20:04;;;;;;;10.18;5.65;;;;;;;;;;5047557;28;20032;-84
2023/02/23 13:22:41;;;;;;;9.73;5.63;;;;;;;;;;5030648;28;20049;-80
2023/02/23 13:25:27;;;;;;;14.35;6.55;;;;;;;;;;5050327;28;20029;-83
2023/02/23 13:27:58;;;;;;;11.65;6.57;;;;;;;;;;5029900;28;20414;-84
2023/02/23 13:30:24;;;;;;;11.98;6.90;;;;;;;;;;5021857;28;20487;-84
2023/02/23 13:32:50;;;;;;;13.68;7.45;;;;;;;;;;5031590;28;20024;-84
2023/02/23 13:35:20;;;;;;;14.43;7.50;;;;;;;;;;5049032;28;20392;-84
2023/02/23 13:37:59;;;;;;;12.63;7.40;;;;;;;;;;5051324;28;20116;-84
2023/02/23 13:40:34;;;;;;;14.05;7.40;;;;;;;;;;5024572;28;20511;-84
2023/02/23 13:43:17;;;;;;;14.07;7.85;;;;;;;;;;5044956;28;20025;-84
2023/02/23 13:45:50;;;;;;;12.07;6.97;;;;;;;;;;5032242;28;20032;-83
2023/02/23 13:48:44;;;;;;;17.00;6.70;;;;;;;;;;5046568;28;20178;-84
2023/02/23 13:51:28;;;;;;;15.80;7.18;;;;;;;;;;5030176;28;20036;-83
2023/02/23 13:53:56;;;;;;;14.27;6.63;;;;;;;;;;5042842;28;20385;-84
2023/02/23 13:56:23;;;;;;;15.35;7.07;;;;;;;;;;5032435;28;20024;-84
2023/02/23 13:59:04;;;;;;;14.40;7.15;;;;;;;;;;5029572;28;20171;-83
2023/02/23 14:01:31;;;;;;;16.52;6.75;;;;;;;;;;5037940;28;20095;-83
2023/02/23 14:03:58;;;;;;;14.65;6.97;;;;;;;;;;5046896;28;20108;-83
2023/02/23 14:06:27;;;;;;;15.05;6.68;;;;;;;;;;5028854;28;20764;-84
2023/02/23 14:09:22;;;;;;;13.82;6.78;;;;;;;;;;5024607;28;20452;-84
2023/02/23 14:11:52;;;;;;;14.38;6.25;;;;;;;;;;5040508;28;20676;-84
2023/02/23 14:14:30;;;;;;;12.18;6.32;;;;;;;;;;5044933;28;20060;-84
2023/02/23 14:17:31;;;;;;;15.73;6.70;;;;;;;;;;5046446;28;20033;-82
2023/02/23 14:20:20;;;;;;;15.00;6.82;;;;;;;;;;5018803;28;20044;-84
2023/02/23 14:23:15;;;;;;;12.30;5.75;;;;;;;;;;5026777;28;20029;-82
2023/02/23 14:25:52;;;;;;;16.20;6.95;;;;;;;;;;5038292;28;20025;-83
2023/02/23 14:28:22;;;;;;;16.48;7.35;;;;;;;;;;5027523;28;20032;-83
2023/02/23 14:31:09;;;;;;;14.93;6.90;;;;;;;;;;5045095;28;20100;-84
2023/02/23 14:33:35;;;;;;;13.85;6.25;;;;;;;;;;5046929;28;20131;-84
2023/02/23 14:36:02;;;;;;;14.73;6.10;;;;;;;;;;5047817;28;20033;-83
2023/02/23 14:38:33;;;;;;;12.07;6.20;;;;;;;;;;5028246;28;20537;-84
2023/02/23 14:41:03;;;;;;;15.10;6.57;;;;;;;;;;5026505;28;20064;-84
2023/02/23 14:43:37;;;;;;;16.25;6.35;;;;;;;;;;5031377;28;20024;-84
2023/02/23 14:46:04;;;;;;;15.45;6.53;;;;;;;;;;5031560;28;20028;-83
2023/02/23 14:48:32;;;;;;;16.13;6.53;;;;;;;;;;5024717;28;20046;-83
2023/02/23 14:51:20;;;;;;;15.85;6.80;;;;;;;;;;5045047;28;20037;-83
2023/02/23 14:53:46;;;;;;;14.60;6.28;;;;;;;;;;5030823;28;20536;-84
2023/02/23 14:56:23;;;;;;;11.45;6.13;;;;;;;;;;5026387;28;20116;-84
2023/02/23 14:58:54;;;;;;;15.45;5.85;;;;;;;;;;5023966;28;20037;-83
2023/02/23 15:01:37;;;;;;;13.00;6.00;;;;;;;;;;5042181;28;20384;-84
2023/02/23 15:04:09;;;;;;;13.25;5.75;;;;;;;;;;5020242;28;20028;-84
2023/02/23 15:06:35;;;;;;;13.50;5.40;;;;;;;;;;5022849;28;20025;-82
2023/02/23 15:09:01;;;;;;;12.77;5.80;;;;;;;;;;5030323;28;20120;-84
2023/02/23 15:11:30;;;;;;;14.35;6.50;;;;;;;;;;5031571;28;20123;-84
2023/02/23 15:13:56;;;;;;;13.70;5.97;;;;;;;;;;5029094;28;20045;-82
2023/02/23 15:16:33;;;;;;;13.52;5.90;;;;;;;;;;5009717;28;20136;-84
2023/02/23 15:19:00;;;;;;;12.50;5.95;;;;;;;;;;5039149;28;20606;-84
2023/02/23 15:21:26;;;;;;;12.38;5.53;;;;;;;;;;5047047;28;20033;-84
2023/02/23 15:24:02;;;;;;;12.65;5.50;;;;;;;;;;5022709;28;20499;-84
2023/02/23 15:26:35;;;;;;;16.13;6.00;;;;;;;;;;5029471;28;20040;-84
2023/02/23 15:29:13;;;;;;;11.45;5.38;;;;;;;;;;5046512;28;20234;-80
2023/02/23 15:31:48;;;;;;;13.93;5.70;;;;;;;;;;5042818;28;20028;-84
2023/02/23 15:34:18;;;;;;;10.52;4.97;;;;;;;;;;5027253;28;20814;-84
2023/02/23 15:36:49;;;;;;;13.63;5.40;;;;;;;;;;5029434;28;20472;-83
2023/02/23 15:39:19;;;;;;;12.15;4.70;;;;;;;;;;5055971;28;20032;-84
2023/02/23 15:41:48;;;;;;;11.77;4.82;;;;;;;;;;5042328;28;20120;-84
2023/02/23 15:44:25;;;;;;;10.93;5.07;;;;;;;;;;5031681;28;20025;-84
2023/02/23 15:47:27;;;;;;;12.65;5.38;;;;;;;;;;5023387;28;20472;-83
2023/02/23 15:50:11;;;;;;;12.70;5.07;;;;;;;;;;5028558;28;20389;-81
2023/02/23 15:52:42;;;;;;;15.70;6.38;;;;;;;;;;5043358;28;20057;-80
2023/02/23 15:55:12;;;;;;;11.27;4.85;;;;;;;;;;5037351;28;20084;-81
2023/02/23 15:57:51;;;;;;;10.63;4.80;;;;;;;;;;5028040;28;20031;-81
2023/02/23 16:00:36;;;;;;;10.65;5.13;;;;;;;;;;5044323;28;20020;-80
2023/02/23 16:03:04;;;;;;;10.40;4.47;;;;;;;;;;5038914;28;20029;-81
2023/02/23 16:05:37;;;;;;;11.65;5.10;;;;;;;;;;5042316;28;20454;-80